Time;durP1;ratioP1;P1;durP2;ratioP2;P2;SDS_P1;SDS_P2;PMS_P1;PMS_P2;Temp;Humidity;BMP_temperature;BMP_pressure;BME280_temperature;BME280_humidity;BME280_pressure;Samples;Min_cycle;Max_cycle;Signal;HPM_P1;HPM_P2
2021/10/10 00:00:09;;;;;;;0.50;0.50;;;;;;;9.18;55.61;102714.16;687740;28;21554;-66
2021/10/10 00:00:33;;;;;;;0.50;0.50;;;;;;;9.17;55.61;102707.91;684262;28;138436;-66
2021/10/10 00:00:54;;;;;;;0.50;0.50;;;;;;;9.16;55.45;102711.56;687207;28;46469;-66
2021/10/10 00:01:15;;;;;;;0.60;0.60;;;;;;;9.17;55.50;102712.44;688075;28;23431;-66
2021/10/10 00:01:37;;;;;;;0.60;0.60;;;;;;;9.16;55.36;102708.03;688415;28;23427;-66
2021/10/10 00:01:59;;;;;;;0.50;0.50;;;;;;;9.15;55.53;102709.00;687455;28;45307;-66
2021/10/10 00:02:20;;;;;;;0.50;0.50;;;;;;;9.16;55.56;102716.97;688265;28;21552;-66
2021/10/10 00:02:41;;;;;;;0.50;0.50;;;;;;;9.15;55.38;102711.69;687283;28;45240;-66
2021/10/10 00:03:03;;;;;;;0.70;0.70;;;;;;;9.13;55.62;102709.09;687360;28;45252;-65
2021/10/10 00:03:24;;;;;;;0.55;0.55;;;;;;;9.15;55.45;102712.56;687712;28;47474;-66
2021/10/10 00:03:45;;;;;;;0.50;0.50;;;;;;;9.15;55.46;102709.88;687890;28;46333;-66
2021/10/10 00:04:06;;;;;;;0.45;0.45;;;;;;;9.15;55.38;102706.28;688467;28;23501;-66
2021/10/10 00:04:28;;;;;;;0.45;0.45;;;;;;;9.16;55.43;102710.72;687803;28;46299;-66
2021/10/10 00:04:49;;;;;;;0.70;0.70;;;;;;;9.13;55.38;102711.81;687551;28;45426;-66
2021/10/10 00:05:10;;;;;;;0.60;0.60;;;;;;;9.13;55.60;102713.66;688015;28;22425;-66
2021/10/10 00:05:31;;;;;;;0.60;0.60;;;;;;;9.11;55.59;102707.53;688667;28;23419;-66
2021/10/10 00:05:53;;;;;;;0.50;0.50;;;;;;;9.09;55.61;102710.34;687955;28;22198;-66
2021/10/10 00:06:14;;;;;;;0.50;0.50;;;;;;;9.11;55.62;102712.91;686503;28;46317;-66
2021/10/10 00:06:35;;;;;;;0.70;0.70;;;;;;;9.06;55.76;102702.50;686850;28;22209;-66
2021/10/10 00:06:56;;;;;;;0.70;0.70;;;;;;;9.06;55.75;102712.41;688600;28;21555;-66
2021/10/10 00:07:18;;;;;;;0.60;0.60;;;;;;;9.05;55.66;102706.16;688261;28;22405;-66
2021/10/10 00:07:41;;;;;;;0.77;0.77;;;;;;;9.06;55.66;102705.19;686749;28;46333;-65
2021/10/10 00:08:04;;;;;;;0.70;0.70;;;;;;;9.05;55.75;102710.69;685413;28;69442;-66
2021/10/10 00:08:25;;;;;;;1.10;1.10;;;;;;;9.05;55.70;102708.00;687892;28;46443;-66
2021/10/10 00:08:47;;;;;;;0.70;0.70;;;;;;;9.01;55.75;102708.25;688521;28;21685;-66
2021/10/10 00:09:08;;;;;;;0.98;0.98;;;;;;;9.04;55.81;102704.44;686653;28;46478;-66
2021/10/10 00:09:29;;;;;;;0.90;0.90;;;;;;;9.04;55.83;102704.44;688696;28;21550;-66
2021/10/10 00:09:50;;;;;;;0.40;0.40;;;;;;;9.01;55.77;102705.53;688511;28;22417;-66
2021/10/10 00:10:13;;;;;;;0.50;0.50;;;;;;;9.01;55.72;102701.97;687134;28;21809;-66
2021/10/10 00:10:35;;;;;;;0.50;0.50;;;;;;;9.01;55.83;102708.25;686850;28;67526;-66
2021/10/10 00:10:56;;;;;;;0.50;0.50;;;;;;;9.00;55.71;102713.75;686202;28;67529;-66
2021/10/10 00:11:17;;;;;;;0.40;0.40;;;;;;;8.99;55.95;102710.19;688441;28;21563;-66
2021/10/10 00:11:38;;;;;;;0.43;0.43;;;;;;;9.00;55.79;102702.97;687682;28;23556;-66
2021/10/10 00:12:00;;;;;;;0.60;0.60;;;;;;;8.95;55.95;102705.13;688413;28;24703;-66
2021/10/10 00:12:21;;;;;;;0.50;0.50;;;;;;;8.99;55.82;102712.03;687602;28;46458;-66
2021/10/10 00:12:43;;;;;;;0.50;0.50;;;;;;;8.98;55.86;102707.59;688288;28;23499;-66
2021/10/10 00:13:05;;;;;;;0.40;0.40;;;;;;;8.97;56.10;102701.34;687259;28;44846;-66
2021/10/10 00:13:27;;;;;;;0.45;0.45;;;;;;;8.96;55.80;102702.31;689056;28;20888;-66
2021/10/10 00:13:48;;;;;;;0.60;0.60;;;;;;;8.97;56.03;102705.91;687416;28;47740;-66
2021/10/10 00:14:10;;;;;;;0.55;0.55;;;;;;;8.97;55.95;102704.06;688257;28;22373;-66
2021/10/10 00:14:31;;;;;;;0.55;0.55;;;;;;;8.97;55.87;102704.06;687288;28;44092;-66
2021/10/10 00:14:53;;;;;;;0.50;0.50;;;;;;;8.94;55.77;102709.69;688105;28;22390;-66
2021/10/10 00:15:14;;;;;;;0.60;0.60;;;;;;;8.91;55.85;102698.28;686461;28;66275;-66
2021/10/10 00:15:35;;;;;;;0.80;0.80;;;;;;;8.95;55.80;102700.63;687250;28;45117;-66
2021/10/10 00:15:57;;;;;;;0.50;0.50;;;;;;;8.95;56.05;102705.13;686718;28;23466;-66
2021/10/10 00:16:19;;;;;;;0.40;0.40;;;;;;;8.93;55.95;102699.88;685776;28;22403;-66
2021/10/10 00:16:40;;;;;;;0.35;0.35;;;;;;;8.94;55.89;102703.44;684964;28;46439;-66
2021/10/10 00:17:01;;;;;;;0.40;0.40;;;;;;;8.94;56.00;102700.75;685849;28;22384;-66
2021/10/10 00:17:22;;;;;;;0.60;0.60;;;;;;;8.93;55.89;102699.88;686582;28;1503;-66
2021/10/10 00:17:44;;;;;;;0.50;0.50;;;;;;;8.92;56.11;102706.25;685170;28;23329;-66
2021/10/10 00:18:06;;;;;;;0.50;0.50;;;;;;;8.93;56.06;102704.41;684693;28;45284;-66
2021/10/10 00:18:27;;;;;;;0.50;0.50;;;;;;;8.91;55.88;102701.81;685956;28;22411;-66
2021/10/10 00:18:48;;;;;;;0.40;0.40;;;;;;;8.89;55.98;102697.56;685762;28;23424;-66
2021/10/10 00:19:10;;;;;;;0.50;0.50;;;;;;;8.92;55.94;102708.94;685749;28;21162;-66
2021/10/10 00:19:31;;;;;;;0.50;0.50;;;;;;;8.91;55.93;102695.59;685059;28;47514;-66
2021/10/10 00:19:52;;;;;;;0.50;0.50;;;;;;;8.91;55.94;102698.28;684601;28;23550;-66
2021/10/10 00:20:13;;;;;;;0.50;0.50;;;;;;;8.90;56.11;102701.94;687674;28;23925;-66
2021/10/10 00:20:35;;;;;;;0.40;0.40;;;;;;;8.87;56.03;102691.41;688051;28;22379;-66
2021/10/10 00:20:56;;;;;;;0.50;0.50;;;;;;;8.90;56.08;102701.94;687234;28;45248;-66
2021/10/10 00:21:17;;;;;;;0.50;0.50;;;;;;;8.88;55.95;102701.22;688366;28;23535;-66
2021/10/10 00:21:38;;;;;;;0.40;0.40;;;;;;;8.86;56.14;102700.47;687563;28;23483;-66
2021/10/10 00:22:00;;;;;;;0.40;0.40;;;;;;;8.88;56.14;102701.22;687844;28;22397;-66
2021/10/10 00:22:21;;;;;;;0.32;0.32;;;;;;;8.87;56.16;102705.75;685028;28;44293;-66
2021/10/10 00:22:43;;;;;;;0.50;0.50;;;;;;;8.85;55.99;102691.53;685759;28;23326;-66
2021/10/10 00:23:06;;;;;;;0.45;0.45;;;;;;;8.88;56.14;102696.69;684817;28;45267;-66
2021/10/10 00:23:27;;;;;;;0.40;0.40;;;;;;;8.86;56.07;102701.34;684467;28;69231;-66
2021/10/10 00:23:48;;;;;;;0.40;0.40;;;;;;;8.86;56.00;102692.41;685860;28;22206;-66
2021/10/10 00:24:09;;;;;;;0.30;0.30;;;;;;;8.85;55.97;102691.53;685756;28;21557;-66
2021/10/10 00:24:31;;;;;;;0.47;0.47;;;;;;;8.84;55.99;102698.75;685832;28;22584;-66
2021/10/10 00:24:52;;;;;;;0.50;0.50;;;;;;;8.83;56.27;102697.03;683836;28;44222;-66
2021/10/10 00:25:14;;;;;;;0.50;0.50;;;;;;;8.81;56.06;102695.44;686181;28;4111;-66
2021/10/10 00:25:36;;;;;;;0.40;0.40;;;;;;;8.81;56.04;102695.44;685575;28;46633;-66
2021/10/10 00:25:57;;;;;;;0.40;0.40;;;;;;;8.81;56.07;102693.59;684707;28;44384;-68
2021/10/10 00:26:18;;;;;;;0.47;0.47;;;;;;;8.80;56.10;102696.41;685726;28;22416;-66
2021/10/10 00:26:39;;;;;;;0.50;0.50;;;;;;;8.80;56.26;102693.72;685262;28;22339;-66
2021/10/10 00:27:01;;;;;;;0.40;0.40;;;;;;;8.78;56.02;102688.44;686448;28;23482;-66
2021/10/10 00:27:23;;;;;;;0.40;0.40;;;;;;;8.77;56.10;102693.94;684106;28;46411;-65
2021/10/10 00:27:44;;;;;;;0.40;0.40;;;;;;;8.77;56.13;102697.50;682098;28;44555;-66
2021/10/10 00:28:05;;;;;;;0.50;0.50;;;;;;;8.77;56.29;102696.66;683782;28;15026;-66
2021/10/10 00:28:27;;;;;;;0.50;0.50;;;;;;;8.76;56.41;102690.41;683950;28;1451;-66
2021/10/10 00:28:48;;;;;;;0.50;0.50;;;;;;;8.75;56.29;102687.84;682327;28;46292;-66
2021/10/10 00:29:09;;;;;;;0.40;0.40;;;;;;;8.76;56.38;102697.63;683918;28;23516;-66
2021/10/10 00:29:31;;;;;;;0.40;0.40;;;;;;;8.76;56.32;102689.53;685324;28;22417;-66
2021/10/10 00:29:53;;;;;;;0.50;0.50;;;;;;;8.76;56.25;102693.09;684144;28;44392;-66
2021/10/10 00:30:14;;;;;;;0.60;0.60;;;;;;;8.75;56.20;102695.91;684905;28;46348;-66
2021/10/10 00:30:35;;;;;;;0.50;0.50;;;;;;;8.74;56.33;102689.66;684286;28;22419;-66
2021/10/10 00:30:57;;;;;;;0.50;0.50;;;;;;;8.73;56.36;102693.34;685302;28;23482;-66
2021/10/10 00:31:19;;;;;;;0.40;0.40;;;;;;;8.72;56.16;102688.06;684826;28;44397;-65
2021/10/10 00:31:40;;;;;;;0.45;0.45;;;;;;;8.71;56.29;102689.03;684914;28;24575;-66
2021/10/10 00:32:02;;;;;;;0.60;0.60;;;;;;;8.73;56.23;102687.94;685778;28;22254;-66
2021/10/10 00:32:24;;;;;;;0.50;0.50;;;;;;;8.74;56.08;102691.50;684574;28;44743;-66
2021/10/10 00:32:45;;;;;;;0.40;0.40;;;;;;;8.73;56.35;102687.94;685880;28;22467;-66
2021/10/10 00:33:06;;;;;;;0.40;0.40;;;;;;;8.73;56.27;102692.47;685620;28;21528;-66
2021/10/10 00:33:27;;;;;;;0.40;0.40;;;;;;;8.73;56.20;102687.06;685840;28;22408;-66
2021/10/10 00:33:49;;;;;;;0.50;0.50;;;;;;;8.69;56.32;102681.06;684938;28;44393;-66
2021/10/10 00:34:10;;;;;;;0.50;0.50;;;;;;;8.72;56.26;102688.06;684838;28;45509;-66
2021/10/10 00:34:31;;;;;;;0.45;0.45;;;;;;;8.72;56.34;102690.75;686016;28;22419;-66
2021/10/10 00:34:52;;;;;;;0.40;0.40;;;;;;;8.73;56.15;102687.06;684724;28;23474;-66
2021/10/10 00:35:15;;;;;;;0.43;0.43;;;;;;;8.72;56.11;102688.91;685667;28;23676;-66
2021/10/10 00:35:36;;;;;;;0.50;0.50;;;;;;;8.73;56.20;102689.75;684771;28;46371;-66
2021/10/10 00:35:57;;;;;;;0.50;0.50;;;;;;;8.73;56.25;102684.38;689197;28;46162;-66
2021/10/10 00:36:18;;;;;;;0.40;0.40;;;;;;;8.71;56.14;102687.19;690114;28;22423;-66
2021/10/10 00:36:39;;;;;;;0.40;0.40;;;;;;;8.73;56.27;102687.94;690541;28;23983;-66
2021/10/10 00:37:01;;;;;;;0.40;0.40;;;;;;;8.72;55.96;102680.84;690239;28;22405;-66
2021/10/10 00:37:23;;;;;;;0.60;0.60;;;;;;;8.72;56.04;102682.69;690066;28;46347;-66
2021/10/10 00:37:44;;;;;;;0.60;0.60;;;;;;;8.72;56.20;102688.06;689536;28;21759;-66
2021/10/10 00:38:07;;;;;;;0.50;0.50;;;;;;;8.71;56.14;102683.66;684252;28;46591;-66
2021/10/10 00:38:29;;;;;;;0.40;0.40;;;;;;;8.70;56.03;102687.31;685495;28;44541;-66
2021/10/10 00:38:50;;;;;;;0.43;0.43;;;;;;;8.69;56.32;102685.59;684978;28;47043;-66
2021/10/10 00:39:11;;;;;;;0.60;0.60;;;;;;;8.69;56.06;102682.91;685636;28;20889;-66
2021/10/10 00:39:32;;;;;;;0.60;0.60;;;;;;;8.64;56.26;102680.56;688052;28;22231;-66
2021/10/10 00:39:54;;;;;;;0.60;0.60;;;;;;;8.68;56.18;102681.19;687238;28;23549;-66
2021/10/10 00:40:15;;;;;;;0.50;0.50;;;;;;;8.68;56.19;102681.19;687079;28;47647;-66
2021/10/10 00:40:36;;;;;;;0.40;0.40;;;;;;;8.66;56.35;102684.00;688416;28;22478;-66
2021/10/10 00:40:58;;;;;;;0.60;0.60;;;;;;;8.64;56.43;102685.94;687251;28;46372;-66
2021/10/10 00:41:19;;;;;;;0.60;0.60;;;;;;;8.62;56.35;102672.59;686942;28;45242;-66
2021/10/10 00:41:40;;;;;;;0.50;0.50;;;;;;;8.63;56.27;102686.91;686146;28;22417;-66
2021/10/10 00:42:02;;;;;;;0.50;0.50;;;;;;;8.65;56.31;102685.84;686239;28;21548;-66
2021/10/10 00:42:24;;;;;;;0.47;0.47;;;;;;;8.63;56.06;102677.00;686297;28;21166;-66
2021/10/10 00:42:45;;;;;;;0.65;0.65;;;;;;;8.64;56.43;102676.03;685481;28;46163;-66
2021/10/10 00:43:06;;;;;;;0.55;0.55;;;;;;;8.66;56.21;102681.28;685587;28;22393;-66
2021/10/10 00:43:27;;;;;;;0.60;0.60;;;;;;;8.68;56.41;102683.88;686509;28;23485;-66
2021/10/10 00:43:49;;;;;;;0.50;0.50;;;;;;;8.66;56.35;102679.44;686538;28;22392;-66
2021/10/10 00:44:10;;;;;;;0.50;0.50;;;;;;;8.66;56.48;102676.75;685179;28;46419;-66
2021/10/10 00:44:32;;;;;;;0.70;0.70;;;;;;;8.69;56.15;102677.53;685714;28;46536;-66
2021/10/10 00:44:53;;;;;;;0.65;0.65;;;;;;;8.69;56.16;102680.22;685438;28;23485;-66
2021/10/10 00:45:15;;;;;;;0.60;0.60;;;;;;;8.68;56.25;102682.03;686200;28;22310;-66
2021/10/10 00:45:36;;;;;;;0.60;0.60;;;;;;;8.66;56.30;102675.91;685085;28;45142;-66
2021/10/10 00:45:57;;;;;;;0.50;0.50;;;;;;;8.70;56.26;102676.53;686034;28;21534;-66
2021/10/10 00:46:18;;;;;;;0.65;0.65;;;;;;;8.69;56.37;102680.22;686214;28;23653;-66
2021/10/10 00:46:40;;;;;;;0.75;0.75;;;;;;;8.69;56.19;102682.91;686078;28;25032;-66
2021/10/10 00:47:02;;;;;;;0.70;0.70;;;;;;;8.68;56.30;102678.50;685170;28;44388;-66
2021/10/10 00:47:23;;;;;;;0.68;0.68;;;;;;;8.64;56.10;102678.72;685563;28;46381;-66
2021/10/10 00:47:44;;;;;;;0.90;0.90;;;;;;;8.63;56.39;102678.84;686282;28;22397;-66
2021/10/10 00:48:06;;;;;;;1.20;1.20;;;;;;;8.62;56.27;102683.38;686022;28;21540;-66
2021/10/10 00:48:29;;;;;;;23.05;21.95;;;;;;;8.59;56.41;102675.53;684729;28;69451;-66
2021/10/10 00:48:50;;;;;;;53.00;50.35;;;;;;;8.61;56.40;102680.78;685242;28;70821;-66
2021/10/10 00:49:11;;;;;;;67.38;63.78;;;;;;;8.60;56.47;102674.53;686001;28;22420;-66
2021/10/10 00:49:33;;;;;;;19.10;18.20;;;;;;;8.59;56.67;102678.22;685837;28;25539;-66
2021/10/10 00:49:54;;;;;;;5.97;5.78;;;;;;;8.59;56.44;102677.34;684255;28;45084;-66
2021/10/10 00:50:15;;;;;;;16.77;16.02;;;;;;;8.59;56.58;102683.59;685903;28;23491;-66
2021/10/10 00:50:36;;;;;;;16.23;15.52;;;;;;;8.57;56.58;102680.16;686075;28;22364;-66
2021/10/10 00:50:58;;;;;;;3.85;3.75;;;;;;;8.56;56.51;102672.22;686032;28;21529;-66
2021/10/10 00:51:19;;;;;;;0.90;0.90;;;;;;;8.54;56.70;102677.72;685746;28;46327;-66
2021/10/10 00:51:41;;;;;;;0.93;0.93;;;;;;;8.51;56.72;102677.94;686101;28;21560;-66
2021/10/10 00:52:03;;;;;;;0.80;0.80;;;;;;;8.51;56.84;102682.47;685562;28;44383;-66
2021/10/10 00:52:26;;;;;;;0.90;0.90;;;;;;;8.50;56.59;102680.75;685273;28;46299;-66
2021/10/10 00:52:47;;;;;;;2.88;2.78;;;;;;;8.48;56.89;102680.88;684738;28;69415;-66
2021/10/10 00:53:11;;;;;;;0.70;0.70;;;;;;;8.44;56.89;102685.59;685782;28;23510;-66
2021/10/10 00:53:37;;;;;;;1.50;1.50;;;;;;;8.47;56.82;102680.00;683358;28;92150;-66
2021/10/10 00:53:59;;;;;;;1.02;1.02;;;;;;;8.47;56.82;102677.31;682500;28;137892;-66
2021/10/10 00:54:21;;;;;;;0.60;0.60;;;;;;;8.45;57.02;102684.66;685658;28;46347;-66
2021/10/10 00:54:44;;;;;;;0.50;0.50;;;;;;;8.46;57.01;102683.69;685219;28;44445;-66
2021/10/10 00:55:07;;;;;;;0.50;0.50;;;;;;;8.46;56.81;102677.41;684473;28;70187;-66
2021/10/10 00:55:35;;;;;;;0.70;0.70;;;;;;;8.45;57.06;102675.72;683217;28;94581;-66
2021/10/10 00:55:56;;;;;;;0.70;0.70;;;;;;;8.45;56.90;102679.25;681581;28;136353;-66
2021/10/10 00:56:17;;;;;;;0.60;0.60;;;;;;;8.45;57.04;102681.94;685808;28;24495;-66
2021/10/10 00:56:43;;;;;;;0.50;0.50;;;;;;;8.44;56.92;102677.53;688795;28;1516;-66
2021/10/10 00:57:04;;;;;;;0.50;0.50;;;;;;;8.45;57.00;102675.72;687020;28;68408;-66
2021/10/10 00:57:26;;;;;;;0.60;0.60;;;;;;;8.46;56.92;102677.41;689467;28;46545;-66
2021/10/10 00:57:48;;;;;;;0.60;0.60;;;;;;;8.45;56.71;102675.72;690956;28;24855;-66
2021/10/10 00:58:10;;;;;;;0.55;0.55;;;;;;;8.43;56.94;102673.13;689727;28;46467;-66
2021/10/10 00:58:32;;;;;;;0.50;0.50;;;;;;;8.43;56.90;102678.53;687487;28;69268;-66
2021/10/10 00:58:54;;;;;;;0.55;0.55;;;;;;;8.42;56.86;102676.75;685528;28;45284;-66
2021/10/10 00:59:21;;;;;;;0.60;0.60;;;;;;;8.43;57.09;102683.00;685166;28;44446;-66
2021/10/10 00:59:44;;;;;;;0.60;0.60;;;;;;;8.44;57.06;102676.69;681598;28;158936;-66
2021/10/10 01:00:08;;;;;;;0.50;0.50;;;;;;;8.42;57.07;102675.91;683294;28;92146;-66
2021/10/10 01:00:29;;;;;;;0.40;0.40;;;;;;;8.42;57.10;102673.22;684339;28;92259;-66
2021/10/10 01:00:52;;;;;;;0.57;0.57;;;;;;;8.41;57.00;102680.41;685980;28;23517;-66
2021/10/10 01:01:16;;;;;;;0.60;0.60;;;;;;;8.41;56.87;102672.34;683823;28;69404;-66
2021/10/10 01:01:37;;;;;;;0.60;0.60;;;;;;;8.42;57.10;102681.31;683717;28;92194;-66
2021/10/10 01:01:58;;;;;;;0.50;0.50;;;;;;;8.41;57.14;102680.41;686389;28;23485;-66
2021/10/10 01:02:19;;;;;;;0.43;0.43;;;;;;;8.41;56.98;102674.19;686035;28;23443;-66
2021/10/10 01:02:42;;;;;;;0.50;0.50;;;;;;;8.40;57.09;102678.72;685905;28;23251;-66
2021/10/10 01:03:03;;;;;;;0.60;0.60;;;;;;;8.41;57.02;102668.81;684665;28;67488;-66
2021/10/10 01:03:24;;;;;;;0.50;0.50;;;;;;;8.40;56.91;102667.06;686020;28;22242;-66
2021/10/10 01:03:45;;;;;;;0.50;0.50;;;;;;;8.35;56.95;102658.50;686281;28;21374;-66
2021/10/10 01:04:06;;;;;;;0.40;0.40;;;;;;;8.40;57.00;102677.84;685652;28;46846;-66
2021/10/10 01:04:28;;;;;;;0.50;0.50;;;;;;;8.35;56.88;102664.72;685767;28;21529;-66
2021/10/10 01:04:50;;;;;;;0.60;0.60;;;;;;;8.39;56.98;102671.59;685236;28;45252;-67
2021/10/10 01:05:11;;;;;;;0.70;0.70;;;;;;;8.39;57.07;102670.75;685810;28;22396;-66
2021/10/10 01:05:32;;;;;;;0.57;0.57;;;;;;;8.39;56.99;102677.00;685722;28;46367;-66
2021/10/10 01:05:54;;;;;;;0.50;0.50;;;;;;;8.39;56.93;102670.75;685970;28;23170;-66
2021/10/10 01:06:16;;;;;;;0.50;0.50;;;;;;;8.37;56.89;102667.31;686749;28;1587;-66
2021/10/10 01:06:37;;;;;;;0.60;0.60;;;;;;;8.39;57.06;102668.91;686107;28;23169;-66
2021/10/10 01:06:58;;;;;;;0.60;0.60;;;;;;;8.37;57.15;102659.22;686053;28;22401;-66
2021/10/10 01:07:20;;;;;;;0.50;0.50;;;;;;;8.36;56.96;102665.59;685940;28;21553;-66
2021/10/10 01:07:42;;;;;;;0.50;0.50;;;;;;;8.36;57.09;102663.75;684051;28;69438;-66
2021/10/10 01:08:03;;;;;;;0.40;0.40;;;;;;;8.37;57.29;102664.59;685982;28;21369;-66
2021/10/10 01:08:25;;;;;;;0.50;0.50;;;;;;;8.34;57.21;102660.34;686190;28;22464;-66
2021/10/10 01:08:47;;;;;;;0.68;0.68;;;;;;;8.37;57.06;102664.59;684422;28;69762;-67
2021/10/10 01:09:11;;;;;;;0.57;0.57;;;;;;;8.38;57.18;102669.88;685098;28;45773;-66
2021/10/10 01:09:35;;;;;;;0.50;0.50;;;;;;;8.37;57.21;102667.31;686368;28;15074;-66
2021/10/10 01:09:58;;;;;;;0.40;0.40;;;;;;;8.35;57.21;102667.41;683886;28;67413;-66
2021/10/10 01:10:19;;;;;;;0.60;0.60;;;;;;;8.35;57.17;102666.56;684809;28;67498;-66
2021/10/10 01:10:41;;;;;;;0.60;0.60;;;;;;;8.33;57.32;102661.28;686137;28;21558;-66
2021/10/10 01:11:02;;;;;;;0.60;0.60;;;;;;;8.34;57.24;102671.09;684858;28;44418;-66
2021/10/10 01:11:27;;;;;;;0.50;0.50;;;;;;;8.34;57.08;102671.09;685888;28;22376;-66
2021/10/10 01:11:48;;;;;;;0.40;0.40;;;;;;;8.34;57.22;102667.53;682697;28;115151;-66
2021/10/10 01:12:09;;;;;;;0.57;0.57;;;;;;;8.34;57.14;102670.22;685964;28;23473;-66
2021/10/10 01:12:31;;;;;;;0.68;0.68;;;;;;;8.33;57.30;102666.69;685950;28;22440;-66
2021/10/10 01:12:53;;;;;;;0.60;0.60;;;;;;;8.34;57.13;102668.41;684795;28;46356;-66
2021/10/10 01:13:15;;;;;;;0.50;0.50;;;;;;;8.32;57.11;102673.03;685139;28;45317;-66
2021/10/10 01:13:37;;;;;;;0.50;0.50;;;;;;;8.32;57.24;102669.50;685208;28;46452;-66
2021/10/10 01:13:58;;;;;;;0.60;0.60;;;;;;;8.30;57.13;102665.06;685484;28;45485;-66
2021/10/10 01:14:20;;;;;;;0.70;0.70;;;;;;;8.30;57.20;102664.22;686075;28;22381;-66
2021/10/10 01:14:41;;;;;;;0.60;0.60;;;;;;;8.28;57.24;102667.03;685363;28;45275;-66
2021/10/10 01:15:03;;;;;;;0.60;0.60;;;;;;;8.28;57.25;102667.03;685155;28;22178;-66
2021/10/10 01:15:25;;;;;;;0.60;0.60;;;;;;;8.28;57.36;102666.19;685166;28;43739;-66
2021/10/10 01:15:48;;;;;;;0.50;0.50;;;;;;;8.27;57.45;102662.59;686007;28;21556;-66
2021/10/10 01:16:09;;;;;;;0.60;0.60;;;;;;;8.27;57.41;102662.59;683654;28;92291;-66
2021/10/10 01:16:30;;;;;;;0.60;0.60;;;;;;;8.29;57.38;102668.75;685933;28;22393;-66
2021/10/10 01:16:51;;;;;;;0.57;0.57;;;;;;;8.27;57.57;102659.06;685641;28;22399;-66
2021/10/10 01:17:13;;;;;;;0.50;0.50;;;;;;;8.28;57.49;102661.66;686056;28;21525;-66
2021/10/10 01:17:34;;;;;;;0.50;0.50;;;;;;;8.28;57.51;102671.56;684951;28;46294;-66
2021/10/10 01:17:56;;;;;;;0.68;0.68;;;;;;;8.26;57.54;102665.41;685649;28;22391;-66
2021/10/10 01:18:24;;;;;;;0.60;0.60;;;;;;;8.25;57.36;102655.63;685983;28;22398;-66
2021/10/10 01:18:46;;;;;;;0.60;0.60;;;;;;;8.24;57.33;102660.13;682414;28;136269;-66
2021/10/10 01:19:07;;;;;;;0.60;0.60;;;;;;;8.24;57.41;102656.59;685198;28;45299;-66
2021/10/10 01:19:29;;;;;;;0.50;0.50;;;;;;;8.20;57.33;102655.13;685931;28;22670;-66
2021/10/10 01:19:52;;;;;;;0.70;0.70;;;;;;;8.23;57.36;102657.59;685232;28;46341;-66
2021/10/10 01:20:15;;;;;;;0.65;0.65;;;;;;;8.24;57.50;102656.59;688506;28;89093;-66
2021/10/10 01:20:45;;;;;;;0.60;0.60;;;;;;;8.23;57.40;102663.81;689536;28;69472;-66
2021/10/10 01:21:06;;;;;;;0.50;0.50;;;;;;;8.22;57.53;102664.78;686525;28;157666;-67
2021/10/10 01:21:27;;;;;;;0.50;0.50;;;;;;;8.20;57.56;102655.13;688264;28;23592;-66
2021/10/10 01:21:48;;;;;;;0.60;0.60;;;;;;;8.21;57.59;102659.53;687952;28;22456;-66
2021/10/10 01:22:10;;;;;;;0.60;0.60;;;;;;;8.19;57.45;102659.63;686705;28;21437;-66
2021/10/10 01:22:31;;;;;;;0.60;0.60;;;;;;;8.19;57.34;102661.47;685149;28;46429;-66
2021/10/10 01:22:52;;;;;;;0.50;0.50;;;;;;;8.18;57.53;102657.06;685886;28;21401;-66
2021/10/10 01:23:13;;;;;;;0.43;0.43;;;;;;;8.18;57.47;102662.44;685623;28;23701;-66
2021/10/10 01:23:35;;;;;;;0.65;0.65;;;;;;;8.17;57.48;102655.34;685311;28;46337;-66
2021/10/10 01:23:56;;;;;;;0.60;0.60;;;;;;;8.17;57.43;102652.66;685208;28;44410;-66
2021/10/10 01:24:17;;;;;;;0.60;0.60;;;;;;;8.16;57.35;102659.84;686191;28;23300;-66
2021/10/10 01:24:38;;;;;;;0.50;0.50;;;;;;;8.15;57.56;102658.16;685600;28;21577;-66
2021/10/10 01:25:00;;;;;;;0.50;0.50;;;;;;;8.13;57.59;102662.78;685946;28;23463;-66
2021/10/10 01:25:21;;;;;;;0.70;0.70;;;;;;;8.10;57.71;102657.63;685024;28;46387;-66
2021/10/10 01:25:43;;;;;;;0.70;0.70;;;;;;;8.10;57.57;102655.81;686124;28;21533;-66
2021/10/10 01:26:05;;;;;;;0.63;0.63;;;;;;;8.11;57.62;102657.50;685467;28;43362;-66
2021/10/10 01:26:26;;;;;;;0.50;0.50;;;;;;;8.11;57.72;102662.03;685302;28;46343;-67
2021/10/10 01:26:47;;;;;;;0.60;0.60;;;;;;;8.11;57.73;102662.91;685605;28;22373;-66
2021/10/10 01:27:08;;;;;;;0.70;0.70;;;;;;;8.10;57.87;102654.94;685950;28;23453;-66
2021/10/10 01:27:30;;;;;;;0.70;0.70;;;;;;;8.08;57.78;102657.75;686028;28;21554;-66
2021/10/10 01:27:51;;;;;;;0.70;0.70;;;;;;;8.09;57.74;102658.63;684334;28;47503;-66
2021/10/10 01:28:12;;;;;;;0.60;0.60;;;;;;;8.08;57.70;102652.34;686097;28;23473;-66
2021/10/10 01:28:33;;;;;;;0.50;0.50;;;;;;;8.09;57.76;102654.09;685389;28;47301;-66
2021/10/10 01:28:55;;;;;;;0.60;0.60;;;;;;;8.09;57.69;102656.78;686204;28;23454;-66
2021/10/10 01:29:16;;;;;;;0.70;0.70;;;;;;;8.11;57.73;102659.34;685243;28;46300;-66
2021/10/10 01:29:37;;;;;;;0.70;0.70;;;;;;;8.11;57.68;102656.66;686173;28;23420;-66
2021/10/10 01:29:58;;;;;;;0.60;0.60;;;;;;;8.10;57.78;102660.31;685173;28;22401;-66
2021/10/10 01:30:20;;;;;;;0.50;0.50;;;;;;;8.08;57.67;102652.34;686171;28;22410;-66
2021/10/10 01:30:42;;;;;;;0.60;0.60;;;;;;;8.09;57.80;102653.22;684730;28;46439;-66
2021/10/10 01:31:03;;;;;;;0.80;0.80;;;;;;;8.07;57.84;102649.78;685383;28;22195;-66
2021/10/10 01:31:25;;;;;;;0.70;0.70;;;;;;;8.07;57.83;102655.16;686032;28;21771;-66
2021/10/10 01:31:46;;;;;;;0.70;0.70;;;;;;;8.08;57.78;102649.66;684226;28;44404;-66
2021/10/10 01:32:07;;;;;;;0.57;0.57;;;;;;;8.09;57.82;102655.94;685514;28;23477;-66
2021/10/10 01:32:28;;;;;;;0.50;0.50;;;;;;;8.09;57.78;102653.22;685767;28;23485;-66
2021/10/10 01:32:54;;;;;;;0.60;0.60;;;;;;;8.09;57.81;102648.69;686077;28;23480;-66
2021/10/10 01:33:15;;;;;;;0.60;0.60;;;;;;;8.09;57.77;102651.38;681520;28;137197;-66
2021/10/10 01:33:42;;;;;;;0.55;0.55;;;;;;;8.10;57.75;102652.25;686608;28;12954;-66
2021/10/10 01:34:03;;;;;;;0.45;0.45;;;;;;;8.09;57.69;102648.69;683843;28;92152;-66
2021/10/10 01:34:24;;;;;;;0.60;0.60;;;;;;;8.10;57.79;102650.44;686244;28;22371;-66
2021/10/10 01:34:47;;;;;;;0.70;0.70;;;;;;;8.10;57.78;102644.16;685985;28;23534;-66
2021/10/10 01:35:11;;;;;;;0.70;0.70;;;;;;;8.12;57.72;102647.63;683795;28;67521;-66
2021/10/10 01:35:32;;;;;;;0.60;0.60;;;;;;;8.11;57.65;102646.75;686214;28;92296;-66
2021/10/10 01:35:54;;;;;;;0.50;0.50;;;;;;;8.09;57.69;102651.38;688199;28;23274;-66
2021/10/10 01:36:17;;;;;;;0.60;0.60;;;;;;;8.10;57.56;102650.44;687470;28;44417;-66
2021/10/10 01:36:39;;;;;;;0.70;0.70;;;;;;;8.11;57.55;102645.91;686856;28;69450;-66
2021/10/10 01:37:00;;;;;;;0.80;0.80;;;;;;;8.10;57.62;102644.16;688312;28;34782;-66
2021/10/10 01:37:21;;;;;;;0.60;0.60;;;;;;;8.09;57.57;102646.00;688043;28;22363;-66
2021/10/10 01:37:44;;;;;;;0.57;0.57;;;;;;;8.09;57.70;102639.78;685634;28;22445;-66
2021/10/10 01:38:06;;;;;;;0.60;0.60;;;;;;;8.08;57.65;102646.13;684000;28;69206;-66
2021/10/10 01:38:27;;;;;;;0.73;0.73;;;;;;;8.06;57.68;102646.22;684874;28;46315;-66
2021/10/10 01:38:48;;;;;;;0.80;0.80;;;;;;;8.03;57.73;102634.84;686630;28;22416;-66
2021/10/10 01:39:09;;;;;;;0.68;0.68;;;;;;;8.05;57.67;102647.19;686000;28;21386;-66
2021/10/10 01:39:31;;;;;;;0.60;0.60;;;;;;;8.06;57.73;102637.31;686103;28;22405;-66
2021/10/10 01:39:52;;;;;;;0.60;0.60;;;;;;;8.05;57.83;102646.34;684924;28;46230;-66
2021/10/10 01:40:13;;;;;;;0.65;0.65;;;;;;;8.05;58.04;102641.81;685505;28;20642;-66
2021/10/10 01:40:34;;;;;;;0.70;0.70;;;;;;;8.05;57.77;102643.66;685666;28;24389;-66
2021/10/10 01:40:56;;;;;;;0.63;0.63;;;;;;;8.05;57.76;102649.03;685687;28;21530;-67
2021/10/10 01:41:17;;;;;;;0.60;0.60;;;;;;;8.03;57.73;102649.16;685200;28;45236;-66
2021/10/10 01:41:38;;;;;;;0.50;0.50;;;;;;;8.03;57.79;102635.69;686068;28;23350;-66
2021/10/10 01:42:00;;;;;;;0.60;0.60;;;;;;;8.03;57.78;102648.31;685782;28;22399;-66
2021/10/10 01:42:22;;;;;;;0.70;0.70;;;;;;;8.02;57.92;102638.50;685379;28;45503;-66
2021/10/10 01:42:43;;;;;;;0.70;0.70;;;;;;;8.01;58.03;102639.47;685262;28;45315;-66
2021/10/10 01:43:04;;;;;;;0.70;0.70;;;;;;;8.02;57.96;102636.66;685953;28;23485;-66
2021/10/10 01:43:25;;;;;;;0.52;0.52;;;;;;;8.02;57.88;102635.81;685353;28;44402;-66